sensor_id;sensor_type;location;lat;lon;timestamp;P1;durP1;ratioP1;P2;durP2;ratioP2
24421;SDS011;12600;53.326;-6.298;2023-06-04T00:00:53;16.60;;;8.98;;
24421;SDS011;12600;53.326;-6.298;2023-06-04T00:03:44;18.60;;;9.07;;
24421;SDS011;12600;53.326;-6.298;2023-06-04T00:06:34;16.08;;;9.00;;
24421;SDS011;12600;53.326;-6.298;2023-06-04T00:09:25;14.80;;;8.57;;
24421;SDS011;12600;53.326;-6.298;2023-06-04T00:12:15;14.00;;;8.18;;
24421;SDS011;12600;53.326;-6.298;2023-06-04T00:15:05;14.35;;;8.23;;
24421;SDS011;12600;53.326;-6.298;2023-06-04T00:17:56;14.18;;;7.45;;
24421;SDS011;12600;53.326;-6.298;2023-06-04T00:20:45;19.88;;;8.50;;
24421;SDS011;12600;53.326;-6.298;2023-06-04T00:23:35;12.18;;;7.85;;
24421;SDS011;12600;53.326;-6.298;2023-06-04T00:26:26;15.00;;;7.65;;
24421;SDS011;12600;53.326;-6.298;2023-06-04T00:29:15;16.63;;;7.95;;
24421;SDS011;12600;53.326;-6.298;2023-06-04T00:32:05;18.42;;;7.80;;
24421;SDS011;12600;53.326;-6.298;2023-06-04T00:34:56;15.02;;;8.18;;
24421;SDS011;12600;53.326;-6.298;2023-06-04T00:37:46;16.05;;;8.23;;
24421;SDS011;12600;53.326;-6.298;2023-06-04T00:40:36;12.68;;;8.10;;
24421;SDS011;12600;53.326;-6.298;2023-06-04T00:43:27;13.57;;;8.50;;
24421;SDS011;12600;53.326;-6.298;2023-06-04T00:46:19;15.75;;;8.25;;
24421;SDS011;12600;53.326;-6.298;2023-06-04T00:49:08;13.65;;;8.77;;
24421;SDS011;12600;53.326;-6.298;2023-06-04T00:51:59;13.13;;;8.38;;
24421;SDS011;12600;53.326;-6.298;2023-06-04T00:54:48;16.98;;;8.23;;
24421;SDS011;12600;53.326;-6.298;2023-06-04T00:57:39;15.13;;;8.45;;
24421;SDS011;12600;53.326;-6.298;2023-06-04T01:00:30;14.10;;;7.65;;
24421;SDS011;12600;53.326;-6.298;2023-06-04T01:03:20;13.97;;;7.93;;
24421;SDS011;12600;53.326;-6.298;2023-06-04T01:06:18;13.95;;;8.30;;
24421;SDS011;12600;53.326;-6.298;2023-06-04T01:09:16;14.38;;;7.50;;
24421;SDS011;12600;53.326;-6.298;2023-06-04T01:12:07;13.27;;;6.90;;
24421;SDS011;12600;53.326;-6.298;2023-06-04T01:14:59;10.27;;;7.03;;
24421;SDS011;12600;53.326;-6.298;2023-06-04T01:17:53;11.13;;;7.13;;
24421;SDS011;12600;53.326;-6.298;2023-06-04T01:20:50;12.82;;;6.95;;
24421;SDS011;12600;53.326;-6.298;2023-06-04T01:23:44;12.55;;;6.75;;
24421;SDS011;12600;53.326;-6.298;2023-06-04T01:26:45;12.95;;;6.85;;
24421;SDS011;12600;53.326;-6.298;2023-06-04T01:29:37;11.20;;;6.68;;
24421;SDS011;12600;53.326;-6.298;2023-06-04T01:32:26;13.73;;;6.97;;
24421;SDS011;12600;53.326;-6.298;2023-06-04T01:35:18;13.82;;;6.97;;
24421;SDS011;12600;53.326;-6.298;2023-06-04T01:38:07;15.57;;;7.10;;
24421;SDS011;12600;53.326;-6.298;2023-06-04T01:40:57;10.95;;;6.63;;
24421;SDS011;12600;53.326;-6.298;2023-06-04T01:43:48;11.55;;;7.03;;
24421;SDS011;12600;53.326;-6.298;2023-06-04T01:46:38;13.77;;;6.95;;
24421;SDS011;12600;53.326;-6.298;2023-06-04T01:49:27;11.73;;;6.82;;
24421;SDS011;12600;53.326;-6.298;2023-06-04T01:52:18;11.70;;;7.05;;
24421;SDS011;12600;53.326;-6.298;2023-06-04T01:55:09;10.25;;;6.90;;
24421;SDS011;12600;53.326;-6.298;2023-06-04T01:58:01;12.93;;;6.28;;
24421;SDS011;12600;53.326;-6.298;2023-06-04T02:00:51;10.23;;;6.40;;
24421;SDS011;12600;53.326;-6.298;2023-06-04T02:03:41;13.60;;;6.57;;
24421;SDS011;12600;53.326;-6.298;2023-06-04T02:06:32;12.73;;;7.07;;
24421;SDS011;12600;53.326;-6.298;2023-06-04T02:09:23;13.43;;;6.60;;
24421;SDS011;12600;53.326;-6.298;2023-06-04T02:12:13;13.60;;;7.05;;
24421;SDS011;12600;53.326;-6.298;2023-06-04T02:15:03;12.32;;;6.70;;
24421;SDS011;12600;53.326;-6.298;2023-06-04T02:17:55;14.57;;;6.60;;
24421;SDS011;12600;53.326;-6.298;2023-06-04T02:20:47;9.52;;;6.35;;
24421;SDS011;12600;53.326;-6.298;2023-06-04T02:23:37;12.65;;;6.65;;
24421;SDS011;12600;53.326;-6.298;2023-06-04T02:26:28;10.88;;;6.43;;
24421;SDS011;12600;53.326;-6.298;2023-06-04T02:29:19;12.40;;;7.00;;
24421;SDS011;12600;53.326;-6.298;2023-06-04T02:32:08;10.15;;;6.60;;
24421;SDS011;12600;53.326;-6.298;2023-06-04T02:34:58;13.52;;;7.03;;
24421;SDS011;12600;53.326;-6.298;2023-06-04T02:37:47;13.30;;;6.90;;
24421;SDS011;12600;53.326;-6.298;2023-06-04T02:40:38;14.05;;;6.63;;
24421;SDS011;12600;53.326;-6.298;2023-06-04T02:43:29;13.63;;;7.20;;
24421;SDS011;12600;53.326;-6.298;2023-06-04T02:46:18;12.68;;;7.00;;
24421;SDS011;12600;53.326;-6.298;2023-06-04T02:49:09;11.65;;;6.70;;
24421;SDS011;12600;53.326;-6.298;2023-06-04T02:52:00;14.20;;;7.15;;
24421;SDS011;12600;53.326;-6.298;2023-06-04T02:54:50;13.50;;;7.25;;
24421;SDS011;12600;53.326;-6.298;2023-06-04T02:57:39;11.40;;;7.20;;
24421;SDS011;12600;53.326;-6.298;2023-06-04T03:00:32;12.43;;;7.28;;
24421;SDS011;12600;53.326;-6.298;2023-06-04T03:03:22;12.18;;;6.38;;
24421;SDS011;12600;53.326;-6.298;2023-06-04T03:06:12;10.50;;;6.60;;
24421;SDS011;12600;53.326;-6.298;2023-06-04T03:09:02;11.13;;;6.22;;
24421;SDS011;12600;53.326;-6.298;2023-06-04T03:11:54;11.02;;;6.43;;
24421;SDS011;12600;53.326;-6.298;2023-06-04T03:14:47;15.13;;;6.85;;
24421;SDS011;12600;53.326;-6.298;2023-06-04T03:17:40;13.00;;;6.32;;
24421;SDS011;12600;53.326;-6.298;2023-06-04T03:20:31;12.00;;;6.55;;
24421;SDS011;12600;53.326;-6.298;2023-06-04T03:23:25;14.95;;;6.40;;
24421;SDS011;12600;53.326;-6.298;2023-06-04T03:26:15;11.02;;;6.43;;
24421;SDS011;12600;53.326;-6.298;2023-06-04T03:29:05;11.45;;;6.53;;
24421;SDS011;12600;53.326;-6.298;2023-06-04T03:31:55;11.25;;;6.00;;
24421;SDS011;12600;53.326;-6.298;2023-06-04T03:34:46;11.20;;;6.25;;
24421;SDS011;12600;53.326;-6.298;2023-06-04T03:37:37;11.73;;;6.35;;
24421;SDS011;12600;53.326;-6.298;2023-06-04T03:40:26;13.95;;;6.63;;
24421;SDS011;12600;53.326;-6.298;2023-06-04T03:43:16;10.52;;;6.10;;
24421;SDS011;12600;53.326;-6.298;2023-06-04T03:46:08;10.45;;;6.25;;
24421;SDS011;12600;53.326;-6.298;2023-06-04T03:48:58;9.88;;;5.88;;
24421;SDS011;12600;53.326;-6.298;2023-06-04T03:51:50;9.18;;;5.78;;
24421;SDS011;12600;53.326;-6.298;2023-06-04T03:54:41;12.18;;;6.30;;
24421;SDS011;12600;53.326;-6.298;2023-06-04T03:57:31;10.07;;;5.82;;
24421;SDS011;12600;53.326;-6.298;2023-06-04T04:00:21;12.45;;;6.53;;
24421;SDS011;12600;53.326;-6.298;2023-06-04T04:03:14;10.32;;;6.30;;
24421;SDS011;12600;53.326;-6.298;2023-06-04T04:06:06;9.50;;;5.88;;
24421;SDS011;12600;53.326;-6.298;2023-06-04T04:08:57;9.85;;;5.97;;
24421;SDS011;12600;53.326;-6.298;2023-06-04T04:11:46;11.80;;;5.93;;
24421;SDS011;12600;53.326;-6.298;2023-06-04T04:14:36;13.55;;;6.75;;
24421;SDS011;12600;53.326;-6.298;2023-06-04T04:17:26;11.68;;;6.07;;
24421;SDS011;12600;53.326;-6.298;2023-06-04T04:20:15;13.05;;;6.05;;
24421;SDS011;12600;53.326;-6.298;2023-06-04T04:23:11;10.35;;;5.60;;
24421;SDS011;12600;53.326;-6.298;2023-06-04T04:26:05;10.38;;;6.20;;
24421;SDS011;12600;53.326;-6.298;2023-06-04T04:28:55;11.30;;;6.10;;
24421;SDS011;12600;53.326;-6.298;2023-06-04T04:31:50;11.88;;;6.13;;
24421;SDS011;12600;53.326;-6.298;2023-06-04T04:34:50;12.10;;;6.18;;
24421;SDS011;12600;53.326;-6.298;2023-06-04T04:37:51;12.38;;;6.57;;
24421;SDS011;12600;53.326;-6.298;2023-06-04T04:40:41;11.63;;;7.28;;
24421;SDS011;12600;53.326;-6.298;2023-06-04T04:43:34;13.15;;;7.65;;
24421;SDS011;12600;53.326;-6.298;2023-06-04T04:49:37;17.13;;;8.82;;
24421;SDS011;12600;53.326;-6.298;2023-06-04T04:52:26;13.25;;;8.23;;
24421;SDS011;12600;53.326;-6.298;2023-06-04T04:55:16;13.32;;;7.10;;
24421;SDS011;12600;53.326;-6.298;2023-06-04T04:58:08;10.05;;;6.72;;
24421;SDS011;12600;53.326;-6.298;2023-06-04T05:00:58;12.82;;;8.10;;
24421;SDS011;12600;53.326;-6.298;2023-06-04T05:03:48;14.45;;;7.65;;
24421;SDS011;12600;53.326;-6.298;2023-06-04T05:06:38;14.70;;;8.30;;
24421;SDS011;12600;53.326;-6.298;2023-06-04T05:09:28;17.05;;;8.52;;
24421;SDS011;12600;53.326;-6.298;2023-06-04T05:12:18;12.77;;;7.50;;
24421;SDS011;12600;53.326;-6.298;2023-06-04T05:15:08;15.25;;;8.65;;
24421;SDS011;12600;53.326;-6.298;2023-06-04T05:18:02;14.05;;;8.73;;
24421;SDS011;12600;53.326;-6.298;2023-06-04T05:20:55;14.13;;;7.85;;
24421;SDS011;12600;53.326;-6.298;2023-06-04T05:23:49;11.63;;;8.02;;
24421;SDS011;12600;53.326;-6.298;2023-06-04T05:26:41;13.00;;;7.10;;
24421;SDS011;12600;53.326;-6.298;2023-06-04T05:29:37;12.27;;;7.20;;
24421;SDS011;12600;53.326;-6.298;2023-06-04T05:32:27;14.82;;;7.40;;
24421;SDS011;12600;53.326;-6.298;2023-06-04T05:35:19;12.02;;;7.32;;
24421;SDS011;12600;53.326;-6.298;2023-06-04T05:38:09;14.23;;;7.50;;
24421;SDS011;12600;53.326;-6.298;2023-06-04T05:41:04;13.82;;;6.95;;
24421;SDS011;12600;53.326;-6.298;2023-06-04T05:43:57;10.32;;;6.93;;
24421;SDS011;12600;53.326;-6.298;2023-06-04T05:46:48;13.82;;;6.80;;
24421;SDS011;12600;53.326;-6.298;2023-06-04T05:49:37;12.50;;;7.30;;
24421;SDS011;12600;53.326;-6.298;2023-06-04T05:52:28;12.95;;;6.80;;
24421;SDS011;12600;53.326;-6.298;2023-06-04T05:55:18;12.70;;;7.10;;
24421;SDS011;12600;53.326;-6.298;2023-06-04T05:58:08;15.77;;;8.85;;
24421;SDS011;12600;53.326;-6.298;2023-06-04T06:00:58;12.40;;;7.18;;
24421;SDS011;12600;53.326;-6.298;2023-06-04T06:03:47;11.10;;;6.20;;
24421;SDS011;12600;53.326;-6.298;2023-06-04T06:06:38;14.23;;;6.57;;
24421;SDS011;12600;53.326;-6.298;2023-06-04T06:09:29;12.68;;;7.00;;
24421;SDS011;12600;53.326;-6.298;2023-06-04T06:12:19;13.85;;;6.95;;
24421;SDS011;12600;53.326;-6.298;2023-06-04T06:15:08;13.77;;;6.95;;
24421;SDS011;12600;53.326;-6.298;2023-06-04T06:18:01;15.15;;;7.15;;
24421;SDS011;12600;53.326;-6.298;2023-06-04T06:20:50;13.70;;;6.25;;
24421;SDS011;12600;53.326;-6.298;2023-06-04T06:23:40;13.13;;;7.10;;
24421;SDS011;12600;53.326;-6.298;2023-06-04T06:26:31;13.73;;;7.13;;
24421;SDS011;12600;53.326;-6.298;2023-06-04T06:29:22;13.20;;;6.72;;
24421;SDS011;12600;53.326;-6.298;2023-06-04T06:32:12;13.65;;;6.90;;
24421;SDS011;12600;53.326;-6.298;2023-06-04T06:35:01;14.80;;;6.30;;
24421;SDS011;12600;53.326;-6.298;2023-06-04T06:37:51;9.30;;;6.20;;
24421;SDS011;12600;53.326;-6.298;2023-06-04T06:40:40;15.23;;;6.10;;
24421;SDS011;12600;53.326;-6.298;2023-06-04T06:43:31;12.75;;;6.38;;
24421;SDS011;12600;53.326;-6.298;2023-06-04T06:46:21;9.55;;;6.15;;
24421;SDS011;12600;53.326;-6.298;2023-06-04T06:49:10;13.07;;;6.28;;
24421;SDS011;12600;53.326;-6.298;2023-06-04T06:51:59;10.75;;;6.60;;
24421;SDS011;12600;53.326;-6.298;2023-06-04T06:54:49;13.68;;;6.22;;
24421;SDS011;12600;53.326;-6.298;2023-06-04T06:57:39;11.23;;;6.10;;
24421;SDS011;12600;53.326;-6.298;2023-06-04T07:00:30;11.15;;;5.45;;
24421;SDS011;12600;53.326;-6.298;2023-06-04T07:03:20;16.45;;;5.93;;
24421;SDS011;12600;53.326;-6.298;2023-06-04T07:06:09;12.88;;;6.20;;
24421;SDS011;12600;53.326;-6.298;2023-06-04T07:08:59;11.20;;;5.50;;
24421;SDS011;12600;53.326;-6.298;2023-06-04T07:11:48;11.32;;;5.95;;
24421;SDS011;12600;53.326;-6.298;2023-06-04T07:14:37;11.48;;;6.03;;
24421;SDS011;12600;53.326;-6.298;2023-06-04T07:17:28;9.63;;;5.72;;
24421;SDS011;12600;53.326;-6.298;2023-06-04T07:20:18;11.90;;;6.07;;
24421;SDS011;12600;53.326;-6.298;2023-06-04T07:23:08;11.32;;;5.88;;
24421;SDS011;12600;53.326;-6.298;2023-06-04T07:25:57;13.68;;;6.03;;
24421;SDS011;12600;53.326;-6.298;2023-06-04T07:28:47;11.23;;;5.75;;
24421;SDS011;12600;53.326;-6.298;2023-06-04T07:31:36;13.07;;;5.90;;
24421;SDS011;12600;53.326;-6.298;2023-06-04T07:34:27;14.57;;;6.68;;
24421;SDS011;12600;53.326;-6.298;2023-06-04T07:37:17;12.25;;;5.80;;
24421;SDS011;12600;53.326;-6.298;2023-06-04T07:40:06;13.90;;;5.97;;
24421;SDS011;12600;53.326;-6.298;2023-06-04T07:42:57;14.60;;;6.75;;
24421;SDS011;12600;53.326;-6.298;2023-06-04T07:45:47;11.13;;;6.35;;
24421;SDS011;12600;53.326;-6.298;2023-06-04T07:48:36;16.17;;;7.15;;
24421;SDS011;12600;53.326;-6.298;2023-06-04T07:51:27;18.77;;;6.80;;
24421;SDS011;12600;53.326;-6.298;2023-06-04T07:54:17;11.32;;;6.40;;
24421;SDS011;12600;53.326;-6.298;2023-06-04T07:57:06;14.52;;;6.70;;
24421;SDS011;12600;53.326;-6.298;2023-06-04T07:59:55;15.00;;;7.07;;
24421;SDS011;12600;53.326;-6.298;2023-06-04T08:02:46;12.88;;;7.40;;
24421;SDS011;12600;53.326;-6.298;2023-06-04T08:05:36;22.95;;;7.32;;
24421;SDS011;12600;53.326;-6.298;2023-06-04T08:08:27;17.20;;;6.93;;
24421;SDS011;12600;53.326;-6.298;2023-06-04T08:11:17;12.75;;;7.05;;
24421;SDS011;12600;53.326;-6.298;2023-06-04T08:14:09;15.75;;;7.00;;
24421;SDS011;12600;53.326;-6.298;2023-06-04T08:17:00;20.38;;;7.80;;
24421;SDS011;12600;53.326;-6.298;2023-06-04T08:20:01;13.55;;;7.03;;
24421;SDS011;12600;53.326;-6.298;2023-06-04T08:23:01;15.45;;;8.40;;
24421;SDS011;12600;53.326;-6.298;2023-06-04T08:26:13;14.63;;;7.35;;
24421;SDS011;12600;53.326;-6.298;2023-06-04T08:29:16;12.25;;;6.93;;
24421;SDS011;12600;53.326;-6.298;2023-06-04T08:32:09;13.70;;;7.10;;
24421;SDS011;12600;53.326;-6.298;2023-06-04T08:35:09;14.95;;;6.93;;
24421;SDS011;12600;53.326;-6.298;2023-06-04T08:37:59;14.13;;;6.50;;
24421;SDS011;12600;53.326;-6.298;2023-06-04T08:40:49;14.48;;;6.07;;
24421;SDS011;12600;53.326;-6.298;2023-06-04T08:43:44;15.73;;;5.93;;
24421;SDS011;12600;53.326;-6.298;2023-06-04T08:46:36;15.50;;;6.70;;
24421;SDS011;12600;53.326;-6.298;2023-06-04T08:49:28;15.85;;;5.82;;
24421;SDS011;12600;53.326;-6.298;2023-06-04T08:52:21;14.40;;;6.07;;
24421;SDS011;12600;53.326;-6.298;2023-06-04T08:55:12;16.92;;;6.07;;
24421;SDS011;12600;53.326;-6.298;2023-06-04T08:58:05;15.95;;;6.03;;
24421;SDS011;12600;53.326;-6.298;2023-06-04T09:00:56;13.18;;;6.05;;
24421;SDS011;12600;53.326;-6.298;2023-06-04T09:03:46;14.98;;;6.13;;
24421;SDS011;12600;53.326;-6.298;2023-06-04T09:06:38;17.00;;;5.88;;
24421;SDS011;12600;53.326;-6.298;2023-06-04T09:09:28;19.10;;;6.10;;
24421;SDS011;12600;53.326;-6.298;2023-06-04T09:12:21;12.55;;;5.22;;
24421;SDS011;12600;53.326;-6.298;2023-06-04T09:15:13;14.63;;;5.47;;
24421;SDS011;12600;53.326;-6.298;2023-06-04T09:18:04;14.55;;;5.10;;
24421;SDS011;12600;53.326;-6.298;2023-06-04T09:21:03;12.43;;;4.72;;
24421;SDS011;12600;53.326;-6.298;2023-06-04T09:23:55;14.05;;;5.22;;
24421;SDS011;12600;53.326;-6.298;2023-06-04T09:26:46;14.27;;;4.68;;
24421;SDS011;12600;53.326;-6.298;2023-06-04T09:29:36;11.65;;;4.68;;
24421;SDS011;12600;53.326;-6.298;2023-06-04T09:32:26;11.13;;;4.90;;
24421;SDS011;12600;53.326;-6.298;2023-06-04T09:35:19;11.43;;;4.63;;
24421;SDS011;12600;53.326;-6.298;2023-06-04T09:38:08;9.80;;;4.45;;
24421;SDS011;12600;53.326;-6.298;2023-06-04T09:40:58;13.70;;;4.40;;
24421;SDS011;12600;53.326;-6.298;2023-06-04T09:43:58;10.80;;;4.47;;
24421;SDS011;12600;53.326;-6.298;2023-06-04T09:46:53;7.97;;;3.83;;
24421;SDS011;12600;53.326;-6.298;2023-06-04T09:49:43;9.75;;;4.20;;
24421;SDS011;12600;53.326;-6.298;2023-06-04T09:52:36;10.70;;;4.00;;
24421;SDS011;12600;53.326;-6.298;2023-06-04T09:55:27;8.23;;;4.25;;
24421;SDS011;12600;53.326;-6.298;2023-06-04T09:58:16;11.60;;;4.43;;
24421;SDS011;12600;53.326;-6.298;2023-06-04T10:01:06;8.80;;;3.53;;
24421;SDS011;12600;53.326;-6.298;2023-06-04T10:03:57;8.75;;;3.78;;
24421;SDS011;12600;53.326;-6.298;2023-06-04T10:06:51;7.55;;;3.60;;
24421;SDS011;12600;53.326;-6.298;2023-06-04T10:09:42;10.02;;;4.03;;
24421;SDS011;12600;53.326;-6.298;2023-06-04T10:12:34;9.07;;;3.75;;
24421;SDS011;12600;53.326;-6.298;2023-06-04T10:15:26;13.13;;;3.83;;
24421;SDS011;12600;53.326;-6.298;2023-06-04T10:18:15;8.45;;;3.60;;
24421;SDS011;12600;53.326;-6.298;2023-06-04T10:21:06;9.32;;;3.70;;
24421;SDS011;12600;53.326;-6.298;2023-06-04T10:23:56;8.77;;;3.55;;
24421;SDS011;12600;53.326;-6.298;2023-06-04T10:26:48;7.30;;;3.85;;
24421;SDS011;12600;53.326;-6.298;2023-06-04T10:29:39;10.00;;;3.63;;
24421;SDS011;12600;53.326;-6.298;2023-06-04T10:32:29;8.45;;;3.72;;
24421;SDS011;12600;53.326;-6.298;2023-06-04T10:35:28;9.90;;;3.60;;
24421;SDS011;12600;53.326;-6.298;2023-06-04T10:38:19;9.63;;;3.80;;
24421;SDS011;12600;53.326;-6.298;2023-06-04T10:41:12;6.65;;;3.65;;
24421;SDS011;12600;53.326;-6.298;2023-06-04T10:44:04;11.23;;;3.90;;
24421;SDS011;12600;53.326;-6.298;2023-06-04T10:46:54;9.23;;;3.78;;
24421;SDS011;12600;53.326;-6.298;2023-06-04T10:49:45;7.95;;;3.40;;
24421;SDS011;12600;53.326;-6.298;2023-06-04T10:52:35;7.45;;;3.33;;
24421;SDS011;12600;53.326;-6.298;2023-06-04T10:55:25;8.68;;;3.33;;
24421;SDS011;12600;53.326;-6.298;2023-06-04T10:58:15;9.85;;;4.53;;
24421;SDS011;12600;53.326;-6.298;2023-06-04T11:01:06;9.45;;;3.53;;
24421;SDS011;12600;53.326;-6.298;2023-06-04T11:03:56;9.25;;;3.60;;
24421;SDS011;12600;53.326;-6.298;2023-06-04T11:06:46;11.77;;;3.70;;
24421;SDS011;12600;53.326;-6.298;2023-06-04T11:09:37;10.45;;;3.78;;
24421;SDS011;12600;53.326;-6.298;2023-06-04T11:12:43;7.78;;;3.60;;
24421;SDS011;12600;53.326;-6.298;2023-06-04T11:15:37;8.65;;;3.47;;
24421;SDS011;12600;53.326;-6.298;2023-06-04T11:18:30;5.05;;;2.95;;
24421;SDS011;12600;53.326;-6.298;2023-06-04T11:21:20;7.75;;;3.47;;
24421;SDS011;12600;53.326;-6.298;2023-06-04T11:24:11;8.77;;;3.53;;
24421;SDS011;12600;53.326;-6.298;2023-06-04T11:27:02;5.38;;;2.90;;
24421;SDS011;12600;53.326;-6.298;2023-06-04T11:30:04;7.95;;;3.08;;
24421;SDS011;12600;53.326;-6.298;2023-06-04T11:33:00;8.60;;;2.92;;
24421;SDS011;12600;53.326;-6.298;2023-06-04T11:35:52;7.97;;;3.53;;
24421;SDS011;12600;53.326;-6.298;2023-06-04T11:38:41;6.15;;;2.90;;
24421;SDS011;12600;53.326;-6.298;2023-06-04T11:41:31;5.95;;;2.60;;
24421;SDS011;12600;53.326;-6.298;2023-06-04T11:44:22;4.53;;;2.22;;
24421;SDS011;12600;53.326;-6.298;2023-06-04T11:47:13;4.10;;;2.40;;
24421;SDS011;12600;53.326;-6.298;2023-06-04T11:50:04;5.15;;;2.58;;
24421;SDS011;12600;53.326;-6.298;2023-06-04T11:55:48;5.28;;;2.72;;
24421;SDS011;12600;53.326;-6.298;2023-06-04T11:58:37;5.07;;;3.00;;
24421;SDS011;12600;53.326;-6.298;2023-06-04T12:01:27;4.45;;;2.88;;
24421;SDS011;12600;53.326;-6.298;2023-06-04T12:04:18;6.13;;;2.95;;
24421;SDS011;12600;53.326;-6.298;2023-06-04T12:07:08;5.20;;;2.90;;
24421;SDS011;12600;53.326;-6.298;2023-06-04T12:10:06;6.18;;;3.35;;
24421;SDS011;12600;53.326;-6.298;2023-06-04T12:12:56;4.45;;;3.20;;
24421;SDS011;12600;53.326;-6.298;2023-06-04T12:15:50;4.13;;;2.80;;
24421;SDS011;12600;53.326;-6.298;2023-06-04T12:18:40;6.07;;;3.00;;
24421;SDS011;12600;53.326;-6.298;2023-06-04T12:21:30;5.32;;;2.88;;
24421;SDS011;12600;53.326;-6.298;2023-06-04T12:24:19;6.82;;;3.20;;
24421;SDS011;12600;53.326;-6.298;2023-06-04T12:27:10;4.85;;;2.72;;
24421;SDS011;12600;53.326;-6.298;2023-06-04T12:30:01;5.10;;;3.33;;
24421;SDS011;12600;53.326;-6.298;2023-06-04T12:32:54;9.20;;;6.07;;
24421;SDS011;12600;53.326;-6.298;2023-06-04T12:35:43;6.07;;;2.90;;
24421;SDS011;12600;53.326;-6.298;2023-06-04T12:38:33;5.72;;;3.15;;
24421;SDS011;12600;53.326;-6.298;2023-06-04T12:41:22;6.75;;;3.17;;
24421;SDS011;12600;53.326;-6.298;2023-06-04T12:44:14;6.00;;;3.60;;
24421;SDS011;12600;53.326;-6.298;2023-06-04T12:47:03;8.50;;;3.38;;
24421;SDS011;12600;53.326;-6.298;2023-06-04T12:49:53;5.32;;;3.17;;
24421;SDS011;12600;53.326;-6.298;2023-06-04T12:52:43;5.07;;;3.30;;
24421;SDS011;12600;53.326;-6.298;2023-06-04T12:55:33;6.85;;;3.50;;
24421;SDS011;12600;53.326;-6.298;2023-06-04T12:58:22;6.32;;;3.28;;
24421;SDS011;12600;53.326;-6.298;2023-06-04T13:01:14;4.90;;;3.30;;
24421;SDS011;12600;53.326;-6.298;2023-06-04T13:04:03;6.47;;;3.30;;
24421;SDS011;12600;53.326;-6.298;2023-06-04T13:06:53;5.30;;;3.10;;
24421;SDS011;12600;53.326;-6.298;2023-06-04T13:09:46;5.60;;;3.45;;
24421;SDS011;12600;53.326;-6.298;2023-06-04T13:12:36;7.38;;;3.17;;
24421;SDS011;12600;53.326;-6.298;2023-06-04T13:15:25;9.20;;;3.53;;
24421;SDS011;12600;53.326;-6.298;2023-06-04T13:18:18;5.75;;;3.45;;
24421;SDS011;12600;53.326;-6.298;2023-06-04T13:21:07;5.50;;;3.40;;
24421;SDS011;12600;53.326;-6.298;2023-06-04T13:23:57;5.63;;;3.65;;
24421;SDS011;12600;53.326;-6.298;2023-06-04T13:26:46;7.43;;;3.50;;
24421;SDS011;12600;53.326;-6.298;2023-06-04T13:29:36;6.47;;;3.53;;
24421;SDS011;12600;53.326;-6.298;2023-06-04T13:32:26;6.15;;;3.50;;
24421;SDS011;12600;53.326;-6.298;2023-06-04T13:35:17;9.65;;;3.80;;
24421;SDS011;12600;53.326;-6.298;2023-06-04T13:38:06;9.50;;;3.72;;
24421;SDS011;12600;53.326;-6.298;2023-06-04T13:40:56;8.50;;;3.70;;
24421;SDS011;12600;53.326;-6.298;2023-06-04T13:43:45;7.18;;;3.38;;
24421;SDS011;12600;53.326;-6.298;2023-06-04T13:46:34;6.20;;;3.20;;
24421;SDS011;12600;53.326;-6.298;2023-06-04T13:49:24;6.80;;;3.38;;
24421;SDS011;12600;53.326;-6.298;2023-06-04T13:52:15;5.85;;;3.30;;
24421;SDS011;12600;53.326;-6.298;2023-06-04T13:55:05;7.28;;;3.20;;
24421;SDS011;12600;53.326;-6.298;2023-06-04T13:57:56;5.68;;;2.80;;
24421;SDS011;12600;53.326;-6.298;2023-06-04T14:00:45;6.13;;;2.92;;
24421;SDS011;12600;53.326;-6.298;2023-06-04T14:03:35;5.60;;;3.28;;
24421;SDS011;12600;53.326;-6.298;2023-06-04T14:06:24;5.97;;;3.00;;
24421;SDS011;12600;53.326;-6.298;2023-06-04T14:09:16;10.00;;;3.30;;
24421;SDS011;12600;53.326;-6.298;2023-06-04T14:12:05;9.77;;;4.05;;
24421;SDS011;12600;53.326;-6.298;2023-06-04T14:14:56;8.30;;;3.38;;
24421;SDS011;12600;53.326;-6.298;2023-06-04T14:17:47;5.65;;;3.03;;
24421;SDS011;12600;53.326;-6.298;2023-06-04T14:20:36;7.20;;;3.88;;
24421;SDS011;12600;53.326;-6.298;2023-06-04T14:23:26;6.13;;;3.20;;
24421;SDS011;12600;53.326;-6.298;2023-06-04T14:26:17;6.78;;;4.18;;
24421;SDS011;12600;53.326;-6.298;2023-06-04T14:29:07;7.32;;;3.60;;
24421;SDS011;12600;53.326;-6.298;2023-06-04T14:31:57;8.40;;;3.97;;
24421;SDS011;12600;53.326;-6.298;2023-06-04T14:34:47;7.07;;;3.47;;
24421;SDS011;12600;53.326;-6.298;2023-06-04T14:37:36;6.15;;;3.50;;
24421;SDS011;12600;53.326;-6.298;2023-06-04T14:40:26;6.65;;;3.20;;
24421;SDS011;12600;53.326;-6.298;2023-06-04T14:43:17;7.90;;;3.80;;
24421;SDS011;12600;53.326;-6.298;2023-06-04T14:46:06;4.28;;;2.38;;
24421;SDS011;12600;53.326;-6.298;2023-06-04T14:48:56;5.05;;;2.50;;
24421;SDS011;12600;53.326;-6.298;2023-06-04T14:51:45;4.25;;;2.30;;
24421;SDS011;12600;53.326;-6.298;2023-06-04T14:54:35;8.25;;;5.05;;
24421;SDS011;12600;53.326;-6.298;2023-06-04T14:57:24;4.40;;;2.70;;
24421;SDS011;12600;53.326;-6.298;2023-06-04T15:00:15;5.05;;;2.50;;
24421;SDS011;12600;53.326;-6.298;2023-06-04T15:03:05;4.97;;;3.40;;
24421;SDS011;12600;53.326;-6.298;2023-06-04T15:05:54;5.63;;;3.00;;
24421;SDS011;12600;53.326;-6.298;2023-06-04T15:09:04;5.38;;;2.75;;
24421;SDS011;12600;53.326;-6.298;2023-06-04T15:11:53;7.35;;;2.92;;
24421;SDS011;12600;53.326;-6.298;2023-06-04T15:14:43;4.47;;;2.90;;
24421;SDS011;12600;53.326;-6.298;2023-06-04T15:17:34;4.65;;;3.13;;
24421;SDS011;12600;53.326;-6.298;2023-06-04T15:20:24;5.43;;;2.70;;
24421;SDS011;12600;53.326;-6.298;2023-06-04T15:23:14;6.57;;;2.80;;
24421;SDS011;12600;53.326;-6.298;2023-06-04T15:26:05;6.63;;;3.40;;
24421;SDS011;12600;53.326;-6.298;2023-06-04T15:28:54;6.20;;;2.95;;
24421;SDS011;12600;53.326;-6.298;2023-06-04T15:31:44;5.15;;;2.55;;
24421;SDS011;12600;53.326;-6.298;2023-06-04T15:34:35;6.53;;;2.70;;
24421;SDS011;12600;53.326;-6.298;2023-06-04T15:40:16;5.75;;;3.30;;
24421;SDS011;12600;53.326;-6.298;2023-06-04T15:43:05;5.70;;;3.00;;
24421;SDS011;12600;53.326;-6.298;2023-06-04T15:45:54;10.63;;;3.08;;
24421;SDS011;12600;53.326;-6.298;2023-06-04T15:48:44;5.65;;;3.20;;
24421;SDS011;12600;53.326;-6.298;2023-06-04T15:51:35;3.78;;;3.03;;
24421;SDS011;12600;53.326;-6.298;2023-06-04T15:54:24;4.93;;;2.70;;
24421;SDS011;12600;53.326;-6.298;2023-06-04T15:57:32;5.10;;;2.40;;
24421;SDS011;12600;53.326;-6.298;2023-06-04T16:00:22;4.10;;;2.55;;
24421;SDS011;12600;53.326;-6.298;2023-06-04T16:03:11;5.05;;;2.72;;
24421;SDS011;12600;53.326;-6.298;2023-06-04T16:06:00;5.63;;;2.70;;
24421;SDS011;12600;53.326;-6.298;2023-06-04T16:08:51;4.47;;;2.65;;
24421;SDS011;12600;53.326;-6.298;2023-06-04T16:11:41;8.00;;;3.70;;
24421;SDS011;12600;53.326;-6.298;2023-06-04T16:14:31;5.18;;;2.70;;
24421;SDS011;12600;53.326;-6.298;2023-06-04T16:17:20;6.32;;;4.90;;
24421;SDS011;12600;53.326;-6.298;2023-06-04T16:20:10;17.25;;;14.40;;
24421;SDS011;12600;53.326;-6.298;2023-06-04T16:23:00;9.15;;;6.75;;
24421;SDS011;12600;53.326;-6.298;2023-06-04T16:25:50;4.13;;;2.75;;
24421;SDS011;12600;53.326;-6.298;2023-06-04T16:28:40;5.75;;;2.78;;
24421;SDS011;12600;53.326;-6.298;2023-06-04T16:31:30;4.90;;;3.08;;
24421;SDS011;12600;53.326;-6.298;2023-06-04T16:34:20;5.63;;;2.80;;
24421;SDS011;12600;53.326;-6.298;2023-06-04T16:37:09;6.25;;;2.80;;
24421;SDS011;12600;53.326;-6.298;2023-06-04T16:39:58;4.32;;;2.75;;
24421;SDS011;12600;53.326;-6.298;2023-06-04T16:42:49;4.95;;;2.50;;
24421;SDS011;12600;53.326;-6.298;2023-06-04T16:45:40;5.60;;;2.70;;
24421;SDS011;12600;53.326;-6.298;2023-06-04T16:48:29;4.88;;;2.40;;
24421;SDS011;12600;53.326;-6.298;2023-06-04T16:51:18;7.03;;;2.95;;
24421;SDS011;12600;53.326;-6.298;2023-06-04T16:54:08;5.50;;;2.72;;